createdAt,value
2022-09-19T00:10:02.819Z,35.60
2022-09-19T00:11:51.793Z,35.92
2022-09-19T00:17:55.530Z,37.23
2022-09-19T00:32:36.733Z,39.67
2022-09-19T00:36:43.990Z,40.04
2022-09-19T00:38:19.797Z,40.28
2022-09-19T00:50:23.911Z,41.50
2022-09-19T00:53:47.059Z,41.82
2022-09-19T00:55:04.904Z,42.01
2022-09-19T00:56:35.868Z,42.34
2022-09-19T01:12:16.941Z,45.14
2022-09-19T01:35:59.707Z,53.42
2022-09-19T01:44:18.048Z,55.46
2022-09-19T01:45:38.563Z,55.68
2022-09-19T01:47:23.081Z,55.99
2022-09-19T01:49:09.542Z,56.31
2022-09-19T01:50:42.476Z,56.62
2022-09-19T01:52:01.969Z,57.05
2022-09-19T01:53:39.981Z,57.23
2022-09-19T01:57:32.024Z,58.02
2022-09-19T01:59:04.923Z,58.06
2022-09-19T02:05:44.634Z,59.31
2022-09-19T02:07:14.544Z,59.45
2022-09-19T02:08:23.540Z,59.43
2022-09-19T02:09:58.543Z,59.72
2022-09-19T03:29:40.221Z,66.22
2022-09-19T03:31:38.684Z,66.28
2022-09-19T03:46:05.507Z,67.13
2022-09-19T03:55:58.732Z,67.19
2022-09-19T04:03:53.896Z,68.33
2022-09-19T04:05:04.043Z,68.12
2022-09-19T04:06:12.826Z,68.00
2022-09-19T04:07:21.707Z,67.95
2022-09-19T04:08:29.151Z,67.66
2022-09-19T04:09:36.953Z,67.63
2022-09-19T04:10:46.434Z,68.12
2022-09-19T04:11:54.528Z,68.36
2022-09-19T04:13:01.951Z,68.58
2022-09-19T04:14:08.681Z,68.66
2022-09-19T04:15:16.408Z,68.57
2022-09-19T04:16:26.640Z,68.53
2022-09-19T04:17:34.040Z,68.33
2022-09-19T04:18:53.331Z,68.45
2022-09-19T04:20:18.213Z,68.30
2022-09-19T04:21:40.220Z,68.65
2022-09-19T04:23:12.338Z,68.98
2022-09-19T04:24:57.181Z,69.30
2022-09-19T04:26:20.311Z,69.43
2022-09-19T04:27:28.603Z,69.40
2022-09-19T04:28:59.437Z,69.34
2022-09-19T04:30:47.088Z,69.16
2022-09-19T04:32:08.930Z,69.17
2022-09-19T04:33:19.899Z,68.87
2022-09-19T04:34:27.004Z,69.21
2022-09-19T04:35:37.088Z,69.52
2022-09-19T04:36:50.235Z,69.82
2022-09-19T04:37:56.372Z,69.82
2022-09-19T04:39:06.273Z,70.00
2022-09-19T04:40:15.163Z,69.68
2022-09-19T04:41:22.706Z,69.51
2022-09-19T04:42:28.772Z,69.43
2022-09-19T04:43:36.262Z,69.66
2022-09-19T04:44:53.814Z,69.48
2022-09-19T04:46:14.752Z,69.40
2022-09-19T04:47:30.431Z,69.66
2022-09-19T04:48:37.332Z,69.96
2022-09-19T04:49:44.642Z,70.11
2022-09-19T04:50:52.239Z,69.93
2022-09-19T04:51:59.782Z,70.01
2022-09-19T04:53:07.754Z,70.11
2022-09-19T04:54:15.804Z,69.98
2022-09-19T04:55:27.051Z,70.16
2022-09-19T04:56:33.222Z,69.85
2022-09-19T04:57:39.719Z,69.88
2022-09-19T04:58:54.337Z,70.09
2022-09-19T05:00:01.774Z,70.32
2022-09-19T05:01:12.755Z,70.33
2022-09-19T05:02:20.874Z,70.90
2022-09-19T05:03:32.844Z,70.96
2022-09-19T05:04:44.534Z,70.93
2022-09-19T05:05:58.749Z,70.66
2022-09-19T05:07:11.697Z,70.52
2022-09-19T05:08:19.648Z,70.61
2022-09-19T05:09:26.762Z,70.82
2022-09-19T05:10:47.930Z,71.04
2022-09-19T05:11:56.421Z,70.95
2022-09-19T05:13:03.449Z,71.06
2022-09-19T05:14:11.732Z,71.01
2022-09-19T05:15:25.839Z,71.16
2022-09-19T05:16:33.505Z,71.36
2022-09-19T05:17:43.022Z,71.14
2022-09-19T05:18:51.440Z,70.97
2022-09-19T05:19:57.846Z,71.08
2022-09-19T05:21:08.757Z,71.41
2022-09-19T05:22:14.379Z,71.46
2022-09-19T05:23:20.232Z,71.55
2022-09-19T05:24:27.624Z,71.68
2022-09-19T05:25:38.267Z,71.72
2022-09-19T05:26:43.749Z,72.09
2022-09-19T05:27:56.246Z,72.06
2022-09-19T05:29:03.421Z,71.89
2022-09-19T05:30:18.686Z,71.95
2022-09-19T05:31:27.889Z,71.77
2022-09-19T05:32:43.813Z,71.48
2022-09-19T05:34:02.149Z,71.81
2022-09-19T05:35:11.313Z,72.04
2022-09-19T05:36:32.024Z,72.58
2022-09-19T05:37:58.997Z,72.48
2022-09-19T05:39:15.331Z,72.67
2022-09-19T05:40:41.621Z,72.86
2022-09-19T05:42:00.985Z,72.58
2022-09-19T05:43:08.038Z,72.94
2022-09-19T05:44:15.888Z,73.17
2022-09-19T05:45:24.320Z,72.96
2022-09-19T05:46:32.003Z,72.81
2022-09-19T05:47:41.084Z,73.07
2022-09-19T05:48:49.476Z,73.45
2022-09-19T05:49:57.137Z,73.51
2022-09-19T05:51:02.992Z,73.35
2022-09-19T05:52:30.642Z,73.51
2022-09-19T05:53:57.676Z,73.74
2022-09-19T05:55:21.258Z,73.62
2022-09-19T05:56:55.421Z,73.66
2022-09-19T05:58:03.068Z,73.49
2022-09-19T05:59:10.046Z,73.83
2022-09-19T06:00:17.618Z,73.90
2022-09-19T06:01:24.647Z,74.36
2022-09-19T06:02:32.075Z,74.15
2022-09-19T06:03:42.108Z,74.36
2022-09-19T06:04:51.798Z,74.54
2022-09-19T06:05:57.698Z,74.39
2022-09-19T06:07:04.146Z,74.45
2022-09-19T06:08:10.183Z,74.44
2022-09-19T06:09:16.355Z,74.27
2022-09-19T06:10:22.067Z,74.31
2022-09-19T06:11:29.004Z,74.12
2022-09-19T06:12:35.710Z,74.39
2022-09-19T06:14:02.526Z,74.31
2022-09-19T06:15:09.324Z,74.57
2022-09-19T06:16:15.271Z,74.60
2022-09-19T06:17:47.171Z,74.43
2022-09-19T06:19:17.750Z,74.77
2022-09-19T06:20:29.130Z,74.69
2022-09-19T06:22:08.781Z,74.55
2022-09-19T06:23:34.735Z,74.42
2022-09-19T06:24:41.313Z,74.85
2022-09-19T06:25:51.503Z,74.90
2022-09-19T06:26:57.818Z,74.52
2022-09-19T06:28:12.831Z,74.51
2022-09-19T06:29:29.691Z,75.24
2022-09-19T06:31:08.973Z,75.09
2022-09-19T06:32:42.630Z,75.07
2022-09-19T06:33:56.360Z,74.90
2022-09-19T06:35:22.285Z,74.92
2022-09-19T06:36:28.314Z,74.69
2022-09-19T06:37:34.194Z,74.79
2022-09-19T06:38:42.249Z,75.02
2022-09-19T06:40:10.759Z,75.31
2022-09-19T06:41:29.628Z,76.26
2022-09-19T06:43:04.773Z,76.04
2022-09-19T06:44:24.910Z,75.74
2022-09-19T06:46:03.442Z,75.92
2022-09-19T06:47:22.623Z,76.37
2022-09-19T06:48:33.160Z,76.84
2022-09-19T06:49:49.922Z,76.64
2022-09-19T06:51:15.578Z,76.49
2022-09-19T06:52:22.802Z,76.59
2022-09-19T06:53:29.819Z,76.28
2022-09-19T06:54:40.478Z,76.26
2022-09-19T06:55:47.449Z,76.50
2022-09-19T06:57:01.946Z,76.51
2022-09-19T06:58:08.113Z,76.54
2022-09-19T06:59:20.782Z,76.84
2022-09-19T07:00:27.400Z,76.79
2022-09-19T07:01:33.125Z,77.13
2022-09-19T07:02:40.524Z,77.44
2022-09-19T07:03:46.617Z,77.62
2022-09-19T07:05:01.099Z,77.73
2022-09-19T07:06:14.147Z,77.56
2022-09-19T07:07:37.935Z,77.63
2022-09-19T07:08:44.744Z,77.65
2022-09-19T07:09:52.370Z,77.66
2022-09-19T07:11:00.055Z,77.87
2022-09-19T07:12:07.246Z,77.62
2022-09-19T07:13:15.950Z,77.63
2022-09-19T07:14:27.343Z,77.43
2022-09-19T07:15:37.617Z,77.50
2022-09-19T07:16:46.259Z,78.18
2022-09-19T07:17:57.034Z,78.30
2022-09-19T07:19:04.479Z,78.39
2022-09-19T07:20:20.221Z,78.40
2022-09-19T07:21:50.135Z,78.01
2022-09-19T07:23:16.842Z,78.04
2022-09-19T07:24:44.017Z,77.97
2022-09-19T07:26:09.076Z,78.21
2022-09-19T07:27:15.364Z,78.56
2022-09-19T07:28:22.942Z,78.67
2022-09-19T07:29:30.920Z,78.82
2022-09-19T07:30:38.923Z,78.95
2022-09-19T07:31:48.558Z,78.87
2022-09-19T07:32:58.984Z,78.72
2022-09-19T07:34:06.932Z,78.74
2022-09-19T07:35:20.411Z,79.08
2022-09-19T07:36:32.462Z,78.70
2022-09-19T07:37:50.203Z,78.51
2022-09-19T07:39:15.846Z,78.65
2022-09-19T07:40:42.233Z,78.66
2022-09-19T07:42:00.503Z,78.91
2022-09-19T07:43:24.836Z,79.16
2022-09-19T07:44:54.708Z,79.52
2022-09-19T07:46:36.505Z,79.68
2022-09-19T07:48:07.992Z,79.76
2022-09-19T07:49:34.404Z,79.63
2022-09-19T07:51:06.958Z,79.33
2022-09-19T07:52:20.029Z,79.09
2022-09-19T07:53:28.055Z,78.96
2022-09-19T07:54:35.492Z,78.88
2022-09-19T07:55:45.402Z,78.88
2022-09-19T07:56:52.932Z,78.86
2022-09-19T07:58:04.422Z,79.12
2022-09-19T07:59:20.759Z,79.53
2022-09-19T08:00:38.578Z,79.46
2022-09-19T08:01:47.200Z,79.65
2022-09-19T08:03:13.599Z,79.60
2022-09-19T08:04:20.913Z,79.68
2022-09-19T08:05:35.903Z,79.64
2022-09-19T08:06:41.542Z,79.64
2022-09-19T08:07:47.989Z,79.63
2022-09-19T08:08:54.304Z,79.53
2022-09-19T08:10:18.732Z,79.48
2022-09-19T08:11:25.838Z,79.58
2022-09-19T08:12:33.983Z,79.69
2022-09-19T08:13:52.074Z,79.89
2022-09-19T08:15:01.370Z,79.88
2022-09-19T08:16:10.528Z,79.92
2022-09-19T08:17:15.928Z,80.18
2022-09-19T08:18:28.840Z,80.14
2022-09-19T08:19:35.900Z,80.49
2022-09-19T08:20:45.175Z,80.58
2022-09-19T08:21:53.530Z,80.50
2022-09-19T08:23:03.102Z,80.44
2022-09-19T08:24:09.681Z,80.54
2022-09-19T08:25:16.807Z,80.78
2022-09-19T08:26:22.962Z,80.97
2022-09-19T08:27:28.944Z,80.96
2022-09-19T08:28:36.703Z,81.16
2022-09-19T08:29:42.909Z,81.43
2022-09-19T08:30:55.086Z,81.44
2022-09-19T08:32:03.082Z,81.31
2022-09-19T08:33:13.520Z,81.04
2022-09-19T08:34:20.088Z,80.88
2022-09-19T08:35:29.206Z,80.90
2022-09-19T08:36:36.402Z,80.97
2022-09-19T08:37:42.657Z,81.07
2022-09-19T08:38:48.832Z,81.33
2022-09-19T08:40:13.657Z,81.27
2022-09-19T08:41:42.043Z,81.31
2022-09-19T08:42:57.761Z,81.50
2022-09-19T08:44:10.725Z,81.79
2022-09-19T08:45:38.399Z,81.91
2022-09-19T08:46:50.643Z,81.66
2022-09-19T08:47:58.389Z,81.58
2022-09-19T08:49:16.395Z,81.10
2022-09-19T08:50:29.796Z,80.97
2022-09-19T08:52:17.024Z,80.84
2022-09-19T08:53:28.927Z,81.05
2022-09-19T08:54:42.394Z,81.10
2022-09-19T08:55:55.733Z,81.27
2022-09-19T08:57:02.711Z,81.67
2022-09-19T08:58:17.918Z,81.88
2022-09-19T08:59:44.002Z,82.09
2022-09-19T09:00:51.061Z,82.03
2022-09-19T09:02:23.839Z,81.97
2022-09-19T09:03:57.082Z,81.75
2022-09-19T09:05:04.487Z,81.44
2022-09-19T09:06:32.136Z,81.41
2022-09-19T09:07:54.707Z,81.45
2022-09-19T09:09:52.979Z,81.59
2022-09-19T09:11:25.563Z,81.80
2022-09-19T09:13:11.185Z,81.90
2022-09-19T09:14:35.718Z,81.96
2022-09-19T09:16:01.317Z,82.05
2022-09-19T09:17:36.918Z,82.23
2022-09-19T09:19:06.498Z,82.28
2022-09-19T09:20:31.037Z,82.20
2022-09-19T09:22:00.878Z,82.38
2022-09-19T09:23:17.570Z,82.43
2022-09-19T09:24:44.896Z,82.56
2022-09-19T09:26:19.049Z,82.72
2022-09-19T09:27:26.258Z,82.54
2022-09-19T09:28:59.501Z,82.49
2022-09-19T09:30:23.281Z,82.46
2022-09-19T09:31:58.626Z,82.50
2022-09-19T09:33:32.603Z,82.49
2022-09-19T09:35:00.408Z,82.54
2022-09-19T09:36:15.619Z,82.36
2022-09-19T09:37:29.771Z,82.25
2022-09-19T09:38:57.381Z,82.32
2022-09-19T09:40:15.547Z,82.35
2022-09-19T09:41:47.212Z,82.45
2022-09-19T09:43:04.988Z,82.58
2022-09-19T09:44:25.477Z,82.77
2022-09-19T09:45:53.486Z,83.17
2022-09-19T09:47:23.607Z,83.30
2022-09-19T09:48:41.855Z,83.05
2022-09-19T09:49:54.765Z,82.89
2022-09-19T09:51:24.902Z,82.79
2022-09-19T09:53:03.217Z,82.84
2022-09-19T09:54:47.873Z,82.89
2022-09-19T09:56:19.457Z,83.01
2022-09-19T09:58:06.136Z,83.12
2022-09-19T10:00:21.340Z,83.54
2022-09-19T10:02:16.400Z,83.88
2022-09-19T10:03:36.791Z,83.76
2022-09-19T10:05:22.648Z,83.62
2022-09-19T10:06:34.557Z,83.57
2022-09-19T10:08:00.628Z,83.57
2022-09-19T10:09:18.524Z,83.48
2022-09-19T10:10:27.953Z,83.68
2022-09-19T10:13:27.548Z,83.98
2022-09-19T10:14:38.833Z,84.29
2022-09-19T10:16:05.359Z,84.66
2022-09-19T10:17:12.425Z,85.11
2022-09-19T10:18:24.226Z,85.13
2022-09-19T10:19:48.483Z,85.21
2022-09-19T10:20:55.020Z,85.20
2022-09-19T10:22:05.854Z,85.27
2022-09-19T10:23:27.418Z,85.19
2022-09-19T10:24:57.640Z,85.22
2022-09-19T10:26:18.502Z,85.01
2022-09-19T10:27:41.373Z,84.72
2022-09-19T10:29:14.859Z,84.76
2022-09-19T10:30:27.482Z,84.92
2022-09-19T10:31:36.193Z,85.32
2022-09-19T10:33:40.663Z,85.62
2022-09-19T10:34:52.482Z,86.02
2022-09-19T10:36:07.472Z,86.34
2022-09-19T10:37:16.293Z,86.75
2022-09-19T10:38:24.208Z,87.20
2022-09-19T10:39:30.932Z,87.26
2022-09-19T10:40:38.205Z,87.42
2022-09-19T10:41:45.001Z,87.64
2022-09-19T10:42:53.981Z,87.97
2022-09-19T10:44:11.488Z,88.19
2022-09-19T10:45:27.480Z,88.31
2022-09-19T10:46:39.217Z,88.22
2022-09-19T10:48:38.522Z,88.34
2022-09-19T10:49:54.107Z,88.74
2022-09-19T10:51:11.452Z,89.03
2022-09-19T10:52:49.916Z,89.12
2022-09-19T10:53:57.672Z,89.21
2022-09-19T10:55:06.402Z,88.97
2022-09-19T10:56:28.054Z,89.00
2022-09-19T10:57:47.953Z,89.57
2022-09-19T10:59:06.479Z,89.93
2022-09-19T11:00:57.773Z,90.01
2022-09-19T11:02:25.967Z,89.76
2022-09-19T11:03:37.152Z,89.57
2022-09-19T11:04:43.893Z,89.41
2022-09-19T11:05:50.014Z,89.30
2022-09-19T11:07:24.503Z,89.05
2022-09-19T11:08:32.070Z,88.88
2022-09-19T11:09:39.520Z,88.62
2022-09-19T11:10:48.546Z,88.41
2022-09-19T11:12:18.050Z,88.25
2022-09-19T11:13:26.963Z,88.14
2022-09-19T11:14:50.917Z,88.02
2022-09-19T11:16:18.566Z,88.16
2022-09-19T11:17:48.492Z,88.14
2022-09-19T11:19:27.699Z,88.14
2022-09-19T11:21:17.131Z,87.93
2022-09-19T11:22:58.426Z,87.81
2022-09-19T11:24:36.406Z,87.59
2022-09-19T11:26:05.471Z,87.42
2022-09-19T11:27:39.644Z,87.48
2022-09-19T11:29:02.218Z,87.52
2022-09-19T11:30:20.186Z,87.68
2022-09-19T11:35:29.046Z,88.77
2022-09-19T11:36:50.487Z,88.99
2022-09-19T11:40:47.854Z,88.67
2022-09-19T11:42:21.168Z,88.87
2022-09-19T11:44:02.987Z,88.54
2022-09-19T11:45:20.742Z,88.70
2022-09-19T11:46:41.581Z,88.78
2022-09-19T11:48:22.036Z,88.80
2022-09-19T11:49:53.150Z,88.73
2022-09-19T11:51:29.067Z,88.76
2022-09-19T11:52:50.567Z,88.61
2022-09-19T11:54:29.134Z,88.54
2022-09-19T11:55:49.571Z,88.44
2022-09-19T11:57:11.915Z,88.43
2022-09-19T11:58:29.066Z,88.69
2022-09-19T11:59:45.762Z,89.03
2022-09-19T12:01:14.127Z,89.49
2022-09-19T12:02:51.809Z,89.97
2022-09-19T12:04:18.289Z,90.27
2022-09-19T12:06:03.524Z,90.37
2022-09-19T12:07:49.166Z,90.29
2022-09-19T12:09:12.094Z,90.64
2022-09-19T12:10:22.923Z,90.91
2022-09-19T12:11:49.631Z,90.98
2022-09-19T12:13:18.438Z,90.71
2022-09-19T12:14:41.768Z,90.54
2022-09-19T12:16:16.282Z,90.52
2022-09-19T12:17:45.473Z,90.38
2022-09-19T12:19:06.332Z,90.32
2022-09-19T12:20:47.506Z,90.26
2022-09-19T12:22:01.666Z,90.02
2022-09-19T12:23:46.626Z,89.94
2022-09-19T12:25:34.055Z,89.85
2022-09-19T12:27:03.595Z,89.81
2022-09-19T12:28:12.190Z,89.86
2022-09-19T12:29:24.799Z,89.86
2022-09-19T12:30:35.014Z,90.03
2022-09-19T12:31:42.839Z,89.92
2022-09-19T12:33:32.684Z,89.91
2022-09-19T12:34:49.984Z,89.79
2022-09-19T12:36:06.505Z,89.68
2022-09-19T12:37:57.581Z,89.70
2022-09-19T12:39:28.921Z,89.49
2022-09-19T12:40:48.992Z,89.80
2022-09-19T12:42:03.321Z,90.10
2022-09-19T12:43:36.429Z,90.50
2022-09-19T12:45:13.311Z,91.04
2022-09-19T12:46:38.289Z,91.29
2022-09-19T12:48:15.858Z,91.62
2022-09-19T12:49:58.382Z,91.77
2022-09-19T12:51:04.423Z,91.89
2022-09-19T12:52:28.198Z,91.92
2022-09-19T12:53:54.593Z,92.03
2022-09-19T12:55:05.120Z,91.82
2022-09-19T12:56:23.874Z,91.82
2022-09-19T12:57:38.197Z,91.88
2022-09-19T12:59:07.478Z,91.79
2022-09-19T13:00:15.680Z,91.67
2022-09-19T13:01:33.565Z,92.01
2022-09-19T13:02:50.674Z,92.64
2022-09-19T13:04:16.088Z,93.45
2022-09-19T13:05:40.460Z,93.82
2022-09-19T13:06:46.362Z,94.01
2022-09-19T13:07:56.814Z,94.09
2022-09-19T13:09:06.230Z,94.07
2022-09-19T13:10:17.729Z,94.00
2022-09-19T13:11:31.460Z,94.01
2022-09-19T13:12:37.614Z,94.39
2022-09-19T13:13:54.723Z,94.68
2022-09-19T13:15:04.340Z,94.60
2022-09-19T13:16:15.430Z,94.59
2022-09-19T13:17:41.163Z,94.31
2022-09-19T13:19:12.915Z,94.03
2022-09-19T13:20:42.829Z,93.71
2022-09-19T13:22:10.183Z,93.25
2022-09-19T13:23:37.732Z,92.94
2022-09-19T13:24:44.892Z,92.58
2022-09-19T13:25:52.263Z,92.40
2022-09-19T13:26:59.723Z,92.37
2022-09-19T13:28:24.881Z,92.19
2022-09-19T13:29:34.272Z,91.90
2022-09-19T13:30:50.823Z,91.81
2022-09-19T13:32:08.107Z,91.73
2022-09-19T13:33:41.021Z,91.44
2022-09-19T13:35:16.608Z,90.93
2022-09-19T13:36:28.835Z,90.64
2022-09-19T13:37:34.927Z,90.40
2022-09-19T13:38:41.791Z,90.12
2022-09-19T13:39:57.735Z,89.77
2022-09-19T13:41:31.091Z,89.54
2022-09-19T13:42:42.130Z,89.42
2022-09-19T13:44:15.132Z,89.35
2022-09-19T13:45:44.454Z,89.01
2022-09-19T13:47:23.055Z,88.59
2022-09-19T13:48:55.821Z,88.15
2022-09-19T13:50:25.798Z,87.77
2022-09-19T13:51:33.859Z,87.47
2022-09-19T13:52:47.606Z,87.23
2022-09-19T13:54:25.711Z,87.14
2022-09-19T13:55:34.887Z,87.04
2022-09-19T13:56:40.540Z,86.92
2022-09-19T13:57:49.981Z,86.71
2022-09-19T13:59:22.664Z,86.47
2022-09-19T14:00:40.387Z,86.22
2022-09-19T14:02:00.356Z,85.79
2022-09-19T14:03:28.684Z,85.25
2022-09-19T14:05:03.711Z,84.90
2022-09-19T14:06:32.234Z,84.74
2022-09-19T14:11:06.820Z,83.27
2022-09-19T14:12:48.112Z,82.85
2022-09-19T14:13:54.254Z,82.63
2022-09-19T14:15:02.236Z,82.59
2022-09-19T14:16:38.764Z,82.36
2022-09-19T14:17:45.507Z,82.45
2022-09-19T14:18:58.722Z,82.56
2022-09-19T14:20:14.262Z,82.46
2022-09-19T14:21:36.077Z,82.50
2022-09-19T14:22:45.874Z,82.30
2022-09-19T14:23:54.835Z,82.08
2022-09-19T14:25:05.081Z,81.88
2022-09-19T14:26:21.555Z,81.67
2022-09-19T14:27:39.177Z,81.40
2022-09-19T14:29:19.757Z,81.28
2022-09-19T14:31:14.393Z,81.15
2022-09-19T14:33:05.561Z,80.91
2022-09-19T14:34:18.686Z,81.03
2022-09-19T14:35:52.862Z,81.07
2022-09-19T14:37:03.483Z,80.83
2022-09-19T14:38:33.903Z,80.57
2022-09-19T14:39:45.925Z,80.30
2022-09-19T14:41:15.568Z,80.21
2022-09-19T14:42:56.214Z,79.99
2022-09-19T14:44:43.665Z,79.73
2022-09-19T14:46:14.287Z,79.62
2022-09-19T14:47:27.274Z,79.12
2022-09-19T14:48:42.580Z,79.03
2022-09-19T14:50:22.422Z,79.18
2022-09-19T14:51:56.245Z,79.38
2022-09-19T14:53:15.224Z,79.02
2022-09-19T14:54:39.567Z,78.65
2022-09-19T14:55:57.953Z,78.39
2022-09-19T14:57:12.363Z,77.96
2022-09-19T14:58:31.317Z,77.55
2022-09-19T14:59:38.355Z,77.28
2022-09-19T15:00:46.587Z,76.94
2022-09-19T15:01:58.161Z,76.62
2022-09-19T15:03:14.126Z,76.56
2022-09-19T15:04:21.257Z,76.57
2022-09-19T15:05:31.887Z,76.43
2022-09-19T15:06:51.437Z,75.57
2022-09-19T15:08:33.924Z,75.98
2022-09-19T15:09:44.324Z,75.95
2022-09-19T15:10:53.258Z,75.34
2022-09-19T15:12:01.541Z,74.84
2022-09-19T15:13:27.658Z,74.71
2022-09-19T15:14:35.555Z,74.15
2022-09-19T15:15:43.660Z,74.08
2022-09-19T15:16:52.671Z,73.99
2022-09-19T15:18:00.833Z,73.24
2022-09-19T15:19:13.433Z,72.79
2022-09-19T15:20:21.494Z,72.60
2022-09-19T15:21:29.908Z,71.78
2022-09-19T15:22:37.473Z,70.87
2022-09-19T15:23:45.471Z,71.75
2022-09-19T15:24:52.342Z,71.47
2022-09-19T15:26:06.071Z,71.32
2022-09-19T15:27:21.332Z,71.12
2022-09-19T15:28:44.012Z,70.83
2022-09-19T15:29:55.161Z,70.77
2022-09-19T15:31:02.121Z,70.55
2022-09-19T15:32:20.074Z,69.20
2022-09-19T15:33:26.904Z,68.58
2022-09-19T15:34:33.411Z,68.21
2022-09-19T15:35:45.203Z,68.47
2022-09-19T15:36:50.906Z,68.43
2022-09-19T15:38:08.150Z,68.53
2022-09-19T15:39:14.699Z,68.63
2022-09-19T15:40:25.958Z,68.69
2022-09-19T15:41:32.314Z,68.61
2022-09-19T15:42:38.416Z,68.57
2022-09-19T15:43:48.365Z,67.82
2022-09-19T15:44:54.704Z,67.62
2022-09-19T15:46:06.157Z,67.44
2022-09-19T15:47:19.789Z,67.37
2022-09-19T15:48:45.935Z,67.35
2022-09-19T15:49:57.572Z,67.55
2022-09-19T15:51:05.325Z,67.61
2022-09-19T15:52:32.730Z,66.56
2022-09-19T15:53:40.905Z,65.69
2022-09-19T15:54:53.330Z,65.62
2022-09-19T15:56:14.138Z,65.51
2022-09-19T15:57:34.212Z,65.17
2022-09-19T15:58:43.913Z,64.86
2022-09-19T15:59:49.968Z,64.23
2022-09-19T16:00:55.708Z,63.96
2022-09-19T16:02:19.112Z,63.78
2022-09-19T16:03:25.329Z,63.88
2022-09-19T16:04:34.637Z,64.01
2022-09-19T16:05:41.940Z,64.47
2022-09-19T16:07:16.937Z,64.82
2022-09-19T16:08:45.209Z,64.97
2022-09-19T16:10:23.634Z,64.06
2022-09-19T16:11:43.883Z,63.02
2022-09-19T16:12:53.460Z,62.69
2022-09-19T16:14:30.977Z,62.66
2022-09-19T16:15:39.510Z,62.58
2022-09-19T16:16:45.628Z,61.97
2022-09-19T16:17:58.392Z,61.65
2022-09-19T16:19:06.966Z,61.50
2022-09-19T16:20:37.253Z,61.21
2022-09-19T16:21:46.384Z,60.61
2022-09-19T16:22:55.307Z,59.96
2022-09-19T16:24:03.311Z,59.67
2022-09-19T16:25:18.324Z,59.24
2022-09-19T16:26:49.599Z,59.70
2022-09-19T16:28:00.691Z,59.17
2022-09-19T16:29:29.382Z,57.52
2022-09-19T16:30:59.982Z,56.32
2022-09-19T16:32:09.169Z,55.97
2022-09-19T16:33:36.640Z,55.74
2022-09-19T16:34:49.323Z,55.36
2022-09-19T16:36:19.952Z,55.25
2022-09-19T16:37:41.868Z,53.71
2022-09-19T16:39:11.946Z,52.90
2022-09-19T16:40:28.368Z,52.22
2022-09-19T16:41:39.809Z,51.33
2022-09-19T16:42:47.557Z,50.86
2022-09-19T16:44:30.519Z,50.56
2022-09-19T16:45:44.146Z,50.31
2022-09-19T16:47:05.660Z,49.30
2022-09-19T16:48:15.718Z,49.52
2022-09-19T16:49:21.849Z,49.63
2022-09-19T16:50:29.348Z,50.22
2022-09-19T16:51:38.628Z,49.89
2022-09-19T16:52:52.226Z,49.88
2022-09-19T16:53:59.509Z,49.90
2022-09-19T16:55:28.244Z,50.16
2022-09-19T16:56:42.913Z,51.31
2022-09-19T16:57:49.675Z,51.68
2022-09-19T16:58:59.488Z,51.70
2022-09-19T17:00:17.329Z,51.79
2022-09-19T17:02:00.014Z,50.98
2022-09-19T17:03:09.785Z,50.94
2022-09-19T17:04:24.971Z,51.37
2022-09-19T17:05:40.662Z,51.15
2022-09-19T17:06:54.743Z,50.26
2022-09-19T17:08:06.805Z,50.47
2022-09-19T17:09:17.607Z,51.09
2022-09-19T17:10:23.830Z,51.42
2022-09-19T17:11:29.777Z,51.32
2022-09-19T17:12:40.330Z,51.45
2022-09-19T17:13:48.313Z,50.87
2022-09-19T17:15:16.718Z,50.73
2022-09-19T17:16:45.010Z,50.07
2022-09-19T17:18:13.249Z,49.42
2022-09-19T17:19:46.007Z,48.52
2022-09-19T17:21:03.682Z,48.15
2022-09-19T17:22:15.779Z,47.10
2022-09-19T17:23:33.650Z,47.18
2022-09-19T17:24:41.525Z,47.99
2022-09-19T17:25:56.906Z,48.28
2022-09-19T17:27:05.422Z,48.24
2022-09-19T17:28:16.386Z,48.24
2022-09-19T17:29:27.632Z,47.52
2022-09-19T17:30:52.404Z,47.15
2022-09-19T17:32:35.351Z,46.94
2022-09-19T17:33:44.245Z,46.85
2022-09-19T17:34:53.426Z,46.73
2022-09-19T17:36:04.927Z,46.85
2022-09-19T17:37:21.602Z,46.79
2022-09-19T17:38:36.272Z,46.56
2022-09-19T17:39:45.067Z,46.49
2022-09-19T17:40:54.096Z,46.44
2022-09-19T17:42:07.593Z,46.13
2022-09-19T17:44:49.258Z,45.98
2022-09-19T17:46:12.883Z,45.97
2022-09-19T17:47:43.080Z,45.41
2022-09-19T17:49:01.073Z,45.50
2022-09-19T17:50:10.800Z,45.76
2022-09-19T17:51:21.159Z,44.82
2022-09-19T17:52:38.737Z,44.65
2022-09-19T17:53:51.112Z,44.20
2022-09-19T17:54:58.232Z,43.67
2022-09-19T17:56:21.782Z,43.90
2022-09-19T17:57:27.506Z,43.58
2022-09-19T17:58:39.000Z,43.56
2022-09-19T18:00:00.794Z,43.11
2022-09-19T18:01:35.925Z,42.58
2022-09-19T18:03:07.177Z,41.52
2022-09-19T18:04:18.646Z,41.86
2022-09-19T18:05:27.398Z,42.12
2022-09-19T18:06:36.595Z,41.49
2022-09-19T18:07:45.318Z,41.88
2022-09-19T18:08:57.811Z,41.93
2022-09-19T18:10:10.722Z,41.85
2022-09-19T18:11:22.431Z,41.40
2022-09-19T18:12:30.122Z,41.04
2022-09-19T18:13:41.206Z,41.29
2022-09-19T18:14:48.215Z,41.52
2022-09-19T18:15:54.614Z,41.39
2022-09-19T18:17:01.831Z,41.42
2022-09-19T18:18:13.284Z,41.38
2022-09-19T18:19:21.850Z,40.53
2022-09-19T18:20:30.747Z,39.80
2022-09-19T18:21:40.211Z,39.86
2022-09-19T18:22:48.739Z,39.56
2022-09-19T18:23:55.436Z,38.89
2022-09-19T18:25:07.439Z,38.87
2022-09-19T18:26:19.301Z,39.10
2022-09-19T18:27:50.857Z,39.12
2022-09-19T18:35:43.004Z,36.87
2022-09-19T18:36:51.843Z,36.64
2022-09-19T18:38:02.392Z,36.34
2022-09-19T18:39:15.913Z,35.74
2022-09-19T18:40:47.037Z,35.78
2022-09-19T18:41:58.619Z,36.10
2022-09-19T18:43:17.826Z,36.25
2022-09-19T18:44:25.788Z,35.77
2022-09-19T18:45:53.239Z,35.95
2022-09-19T18:47:13.553Z,35.87
2022-09-19T18:48:21.090Z,35.37
2022-09-19T18:49:28.410Z,35.08
2022-09-19T18:50:35.824Z,35.35
2022-09-19T18:51:45.308Z,34.92
2022-09-19T18:52:52.537Z,34.72
2022-09-19T18:54:02.417Z,34.60
2022-09-19T18:55:10.605Z,34.60
2022-09-19T18:56:18.266Z,35.01
2022-09-19T18:57:26.593Z,35.49
2022-09-19T18:58:35.347Z,34.73
2022-09-19T18:59:43.861Z,34.53
2022-09-19T19:01:11.910Z,34.84
2022-09-19T19:02:21.022Z,34.33
2022-09-19T19:03:37.602Z,34.41
2022-09-19T19:04:49.051Z,34.04
2022-09-19T19:06:21.438Z,34.02
2022-09-19T19:07:31.386Z,34.08
2022-09-19T19:08:39.827Z,33.81
2022-09-19T19:09:49.653Z,34.23
2022-09-19T19:10:57.779Z,33.99
2022-09-19T19:12:30.952Z,33.72
2022-09-19T19:13:34.264Z,33.79
2022-09-19T19:14:40.620Z,33.65
2022-09-19T19:15:46.616Z,32.79
2022-09-19T19:16:52.581Z,32.43
2022-09-19T19:18:01.583Z,32.34
2022-09-19T19:19:09.559Z,32.19
2022-09-19T19:20:16.650Z,31.64
2022-09-19T19:21:24.432Z,31.93
2022-09-19T19:22:30.461Z,31.89
2022-09-19T19:23:36.564Z,32.04
2022-09-19T19:24:42.946Z,31.42
2022-09-19T19:25:52.373Z,31.57
2022-09-19T19:27:00.186Z,31.04
2022-09-19T19:28:06.166Z,31.36
2022-09-19T19:29:15.058Z,30.93
2022-09-19T19:30:21.346Z,30.85
2022-09-19T19:31:32.653Z,30.00
2022-09-19T19:32:38.735Z,29.41
2022-09-19T19:33:44.447Z,29.22
2022-09-19T19:34:51.872Z,28.52
2022-09-19T19:36:13.624Z,28.65
2022-09-19T19:37:24.251Z,28.60
2022-09-19T19:38:39.206Z,28.15
2022-09-19T19:39:52.579Z,27.83
2022-09-19T19:41:14.032Z,28.46
2022-09-19T19:43:24.094Z,27.78
2022-09-19T19:44:33.511Z,28.06
2022-09-19T19:45:49.563Z,28.17
2022-09-19T19:46:58.599Z,28.13
2022-09-19T19:49:34.379Z,28.20
2022-09-19T19:50:41.256Z,28.06
2022-09-19T19:51:51.032Z,27.82
2022-09-19T19:53:00.937Z,27.87
2022-09-19T19:54:17.057Z,27.55
2022-09-19T19:55:23.323Z,27.53
2022-09-19T19:56:35.954Z,27.44
2022-09-19T19:57:42.864Z,27.36
2022-09-19T19:58:49.890Z,27.24
2022-09-19T19:59:57.944Z,27.59
2022-09-19T20:03:19.834Z,27.85
2022-09-19T20:04:34.084Z,27.81
2022-09-19T20:05:53.075Z,28.02
2022-09-19T20:07:04.015Z,27.84
2022-09-19T20:08:11.457Z,28.01
2022-09-19T20:09:18.600Z,27.97
2022-09-19T20:10:25.226Z,27.63
2022-09-19T20:12:05.980Z,27.40
2022-09-19T20:14:08.120Z,27.46
2022-09-19T20:15:16.152Z,27.32
2022-09-19T20:16:23.817Z,27.01
2022-09-19T20:17:34.366Z,27.15
2022-09-19T20:18:44.956Z,27.30
2022-09-19T20:19:53.000Z,26.87
2022-09-19T20:21:03.446Z,26.22
2022-09-19T20:22:09.624Z,26.05